This is the latest recevied weather packets stored in our database for station/object JR5YHL-13. If no packets are shown the sender has not sent any weather packets the latest 10 day(s).
| Time | Temp. | Humidity | Pressure | Rain* | Wind** | Luminosity | Snow |
|---|---|---|---|---|---|---|---|
| 1778022570 | 17.78° C | 69% | 1020.2 hPa | 0 mm | - | - | - |
| 1778021972 | 17.22° C | 71% | 1020.1 hPa | 0 mm | - | - | - |
| 1778021374 | 16.11° C | 77% | 1020.4 hPa | 0 mm | - | - | - |
| 1778020777 | 15° C | 79% | 1020.3 hPa | 0 mm | - | - | - |
| 1778020179 | 15° C | 79% | 1020.4 hPa | 0 mm | - | - | - |
| 1778019581 | 14.44° C | 80% | 1020.4 hPa | 0 mm | - | - | - |
| 1778018983 | 14.44° C | 81% | 1020.3 hPa | 0 mm | - | - | - |
| 1778018386 | 14.44° C | 83% | 1020.3 hPa | 0 mm | - | - | - |
| 1778017788 | 13.89° C | 86% | 1020.1 hPa | 0 mm | - | - | - |
| 1778017190 | 13.33° C | 86% | 1020.2 hPa | 0 mm | - | - | - |
| 1778016592 | 13.33° C | 87% | 1020.3 hPa | 0 mm | - | - | - |
| 1778015995 | 12.78° C | 88% | 1020.2 hPa | 0 mm | - | - | - |
| 1778015397 | 12.78° C | 88% | 1020.1 hPa | 0 mm | - | - | - |
| 1778014799 | 12.78° C | 89% | 1020.2 hPa | 0 mm | - | - | - |
| 1778014201 | 12.22° C | 90% | 1020.2 hPa | 0 mm | - | - | - |
| 1778013603 | 12.22° C | 90% | 1020.3 hPa | 0 mm | - | - | - |
| 1778013005 | 12.22° C | 90% | 1020.2 hPa | 0 mm | - | - | - |
| 1778012408 | 12.22° C | 89% | 1020.1 hPa | 0 mm | - | - | - |
| 1778011810 | 12.22° C | 89% | 1020.2 hPa | 0 mm | - | - | - |
| 1778011212 | 12.22° C | 87% | 1019.9 hPa | 0 mm | - | - | - |
| 1778010615 | 12.22° C | 86% | 1020 hPa | 0 mm | - | - | - |
| 1778010017 | 12.22° C | 85% | 1020 hPa | 0 mm | - | - | - |
| 1778009419 | 12.22° C | 85% | 1019.9 hPa | 0 mm | - | - | - |
| 1778008822 | 12.22° C | 85% | 1020 hPa | 0 mm | - | - | - |
| 1778008224 | 12.78° C | 83% | 1019.6 hPa | 0 mm | - | - | - |
* Rain latest hour (hover to see other rain measurements)
** Current wind speed in m/s (hover to see current wind gust speed)